Time;durP1;ratioP1;P1;durP2;ratioP2;P2;SDS_P1;SDS_P2;PMS_P1;PMS_P2;Temp;Humidity;BMP_temperature;BMP_pressure;BME280_temperature;BME280_humidity;BME280_pressure;Samples;Min_cycle;Max_cycle;Signal;HPM_P1;HPM_P2
2022/12/09 04:01:45;;;;;;;28.15;11.50;;;0.40;99.90;;;;;;6166614;23;20025;-78
2022/12/09 04:04:11;;;;;;;28.75;12.00;;;0.40;99.90;;;;;;6187562;23;20013;-77
2022/12/09 04:06:38;;;;;;;31.52;12.43;;;0.30;99.90;;;;;;6187775;23;20020;-81
2022/12/09 04:09:04;;;;;;;37.33;13.45;;;0.30;99.90;;;;;;6187405;23;20116;-79
2022/12/09 04:11:31;;;;;;;32.53;12.93;;;0.20;99.90;;;;;;6160843;23;20316;-80
2022/12/09 04:13:57;;;;;;;32.35;13.65;;;0.20;99.90;;;;;;6187333;23;20020;-77
2022/12/09 04:16:22;;;;;;;32.25;12.93;;;0.20;99.90;;;;;;6161872;23;20016;-78
2022/12/09 04:18:48;;;;;;;34.67;13.13;;;0.10;99.90;;;;;;6161782;23;20066;-78
2022/12/09 04:21:14;;;;;;;33.65;12.07;;;0.10;99.90;;;;;;6187806;23;20430;-80
2022/12/09 04:23:40;;;;;;;32.78;12.57;;;0.10;99.90;;;;;;6160945;23;20311;-78
2022/12/09 04:26:06;;;;;;;27.92;12.00;;;0.10;99.90;;;;;;6160738;23;20025;-77
2022/12/09 04:28:32;;;;;;;32.60;12.88;;;0.00;99.90;;;;;;6187062;23;20060;-78
2022/12/09 04:30:58;;;;;;;30.75;11.50;;;0.00;99.90;;;;;;6187108;23;20009;-82
2022/12/09 04:33:25;;;;;;;37.10;12.95;;;0.00;99.90;;;;;;6160618;23;20079;-79
2022/12/09 04:35:51;;;;;;;29.73;11.70;;;0.00;99.90;;;;;;6160590;23;20092;-78
2022/12/09 04:38:16;;;;;;;31.90;12.20;;;-0.10;99.90;;;;;;6160832;23;20103;-79
2022/12/09 04:40:42;;;;;;;36.38;13.38;;;-0.10;99.90;;;;;;6187631;23;20093;-78
2022/12/09 04:43:08;;;;;;;37.03;12.77;;;-0.10;99.90;;;;;;6160660;23;20454;-77
2022/12/09 04:45:33;;;;;;;50.33;12.63;;;-0.10;99.90;;;;;;6135941;23;20064;-79
2022/12/09 04:47:59;;;;;;;37.65;12.38;;;-0.10;99.90;;;;;;6160694;23;20011;-83
2022/12/09 04:50:25;;;;;;;33.30;12.73;;;-0.20;99.90;;;;;;6187072;23;20009;-78
2022/12/09 04:52:51;;;;;;;35.70;12.38;;;-0.20;99.90;;;;;;6187306;23;20013;-79
2022/12/09 04:55:17;;;;;;;34.42;12.00;;;-0.30;99.90;;;;;;6160604;23;20013;-80
2022/12/09 04:57:42;;;;;;;33.72;12.27;;;-0.30;99.90;;;;;;6160254;23;20470;-80
2022/12/09 05:00:09;;;;;;;36.30;13.23;;;-0.30;99.90;;;;;;6160978;23;20375;-77
2022/12/09 05:02:35;;;;;;;38.10;12.68;;;-0.30;99.90;;;;;;6183848;23;20013;-78
2022/12/09 05:05:01;;;;;;;31.77;12.43;;;-0.30;99.90;;;;;;6187981;23;20307;-81
2022/12/09 05:07:28;;;;;;;34.55;11.80;;;-0.40;99.90;;;;;;6184950;23;20041;-80
2022/12/09 05:09:54;;;;;;;41.90;14.32;;;-0.40;99.90;;;;;;6187141;23;20009;-77
2022/12/09 05:12:19;;;;;;;33.40;13.27;;;-0.40;99.90;;;;;;6160382;23;20511;-79
2022/12/09 05:14:45;;;;;;;33.55;12.32;;;-0.40;99.90;;;;;;6185122;23;20016;-78
2022/12/09 05:17:11;;;;;;;34.28;14.30;;;-0.40;99.90;;;;;;6185081;23;20092;-77
2022/12/09 05:19:37;;;;;;;35.53;13.15;;;-0.40;99.90;;;;;;6160417;23;20568;-77
2022/12/09 05:22:03;;;;;;;31.75;12.18;;;-0.40;99.90;;;;;;6186306;23;20024;-77
2022/12/09 05:24:30;;;;;;;34.53;13.10;;;-0.40;99.90;;;;;;6160071;23;20024;-79
2022/12/09 05:26:55;;;;;;;35.00;12.98;;;-0.50;99.90;;;;;;6184869;23;20096;-78
2022/12/09 05:29:21;;;;;;;28.42;12.15;;;-0.50;99.90;;;;;;6184783;23;20042;-78
2022/12/09 05:31:47;;;;;;;36.80;13.05;;;-0.50;99.90;;;;;;6186512;23;20005;-81
2022/12/09 05:34:13;;;;;;;32.50;12.27;;;-0.50;99.90;;;;;;6184886;23;20343;-78
2022/12/09 05:36:38;;;;;;;37.05;13.00;;;-0.50;99.90;;;;;;6184542;23;20029;-79
2022/12/09 05:39:04;;;;;;;34.05;12.73;;;-0.60;99.90;;;;;;6186908;23;20013;-78
2022/12/09 05:41:29;;;;;;;37.72;13.43;;;-0.60;99.90;;;;;;6186378;23;20009;-79
2022/12/09 05:43:55;;;;;;;33.20;12.07;;;-0.60;99.90;;;;;;6186250;23;20052;-80
2022/12/09 05:46:21;;;;;;;39.17;13.15;;;-0.70;99.90;;;;;;6186130;23;20016;-79
2022/12/09 05:48:47;;;;;;;34.63;12.73;;;-0.60;99.90;;;;;;6185344;23;20048;-79
2022/12/09 05:51:22;;;;;;;31.85;11.60;;;-0.70;99.90;;;;;;6185866;23;20064;-77
2022/12/09 05:53:47;;;;;;;34.15;12.40;;;-0.70;99.90;;;;;;6185624;23;20013;-78
2022/12/09 05:56:15;;;;;;;34.85;12.65;;;-0.80;99.90;;;;;;6185460;23;20028;-79
2022/12/09 05:58:40;;;;;;;39.53;14.25;;;-0.80;99.90;;;;;;6161041;23;20017;-80
2022/12/09 06:01:07;;;;;;;35.17;12.38;;;-0.80;99.90;;;;;;6184944;23;20025;-79
2022/12/09 06:03:33;;;;;;;38.08;12.48;;;-0.80;99.90;;;;;;6187305;23;20013;-80
2022/12/09 06:06:02;;;;;;;39.70;13.13;;;-0.90;99.90;;;;;;6184686;23;20020;-80
2022/12/09 06:08:28;;;;;;;38.00;13.57;;;-0.90;99.90;;;;;;6186622;23;20063;-78
2022/12/09 06:10:54;;;;;;;39.83;14.38;;;-0.90;99.90;;;;;;6185282;23;20048;-79
2022/12/09 06:13:19;;;;;;;42.70;16.33;;;-0.90;99.90;;;;;;6186367;23;20005;-81
2022/12/09 06:15:45;;;;;;;38.42;14.32;;;-0.80;99.90;;;;;;6184550;23;20195;-78
2022/12/09 06:18:10;;;;;;;39.13;14.73;;;-0.80;99.90;;;;;;6186298;23;20039;-79
2022/12/09 06:20:39;;;;;;;38.00;14.45;;;-0.80;99.90;;;;;;6186739;23;20063;-76
2022/12/09 06:23:05;;;;;;;40.33;15.60;;;-0.80;99.90;;;;;;6186449;23;20009;-78
2022/12/09 06:25:31;;;;;;;47.30;18.58;;;-0.80;99.90;;;;;;6184886;23;20024;-81
2022/12/09 06:27:56;;;;;;;42.22;15.88;;;-0.80;99.90;;;;;;6185313;23;20009;-77
2022/12/09 06:30:22;;;;;;;45.28;16.25;;;-0.80;99.90;;;;;;6186521;23;20009;-78
2022/12/09 06:32:47;;;;;;;46.25;16.40;;;-0.80;99.90;;;;;;6159941;23;20083;-80
2022/12/09 06:35:13;;;;;;;44.15;17.20;;;-0.80;99.90;;;;;;6186154;23;20439;-80
2022/12/09 06:37:39;;;;;;;48.30;17.70;;;-0.80;99.90;;;;;;6184594;23;20025;-77
2022/12/09 06:40:06;;;;;;;45.95;17.42;;;-0.80;99.90;;;;;;6186184;23;20009;-80
2022/12/09 06:42:31;;;;;;;48.88;17.92;;;-0.80;99.90;;;;;;6186146;23;20115;-78
2022/12/09 06:44:57;;;;;;;42.67;16.80;;;-0.80;99.90;;;;;;6159473;23;20447;-79
2022/12/09 06:47:22;;;;;;;51.50;17.83;;;-0.80;99.90;;;;;;6186019;23;20009;-79
2022/12/09 06:49:48;;;;;;;44.63;16.25;;;-0.80;99.90;;;;;;6184544;23;20009;-79
2022/12/09 06:52:13;;;;;;;49.85;17.75;;;-0.80;99.90;;;;;;6184308;23;20048;-80
2022/12/09 06:54:39;;;;;;;54.40;20.10;;;-0.70;99.90;;;;;;6186312;23;20055;-77
2022/12/09 06:57:05;;;;;;;57.60;20.50;;;-0.70;99.90;;;;;;6185897;23;20024;-77
2022/12/09 06:59:30;;;;;;;60.85;20.08;;;-0.60;99.90;;;;;;6161553;23;20013;-80
2022/12/09 07:01:56;;;;;;;68.78;22.10;;;-0.60;99.90;;;;;;6187599;23;20104;-77
2022/12/09 07:04:21;;;;;;;73.25;22.30;;;-0.60;99.90;;;;;;6161413;23;20021;-80
2022/12/09 07:06:47;;;;;;;63.00;22.38;;;-0.50;99.90;;;;;;6161615;23;20072;-79
2022/12/09 07:09:19;;;;;;;78.50;24.30;;;-0.50;99.90;;;;;;6161298;23;20415;-78
2022/12/09 07:11:46;;;;;;;73.78;21.77;;;-0.50;99.90;;;;;;6161067;23;20335;-80
2022/12/09 07:14:13;;;;;;;77.93;24.42;;;-0.40;99.90;;;;;;6187952;23;20009;-81
2022/12/09 07:16:39;;;;;;;83.68;23.98;;;-0.40;99.90;;;;;;6136596;23;20100;-77
2022/12/09 07:19:06;;;;;;;91.97;25.75;;;-0.40;99.90;;;;;;6187950;23;20013;-80
2022/12/09 07:21:32;;;;;;;87.50;24.60;;;-0.40;99.90;;;;;;6189427;23;20092;-78
2022/12/09 07:24:02;;;;;;;84.88;26.63;;;-0.40;99.90;;;;;;6138788;23;20080;-80
2022/12/09 07:26:31;;;;;;;91.85;26.45;;;-0.40;99.90;;;;;;6162339;23;20021;-82
2022/12/09 07:28:57;;;;;;;103.10;27.50;;;-0.30;99.90;;;;;;6188218;23;20016;-81
2022/12/09 07:31:27;;;;;;;431.75;35.55;;;-0.30;99.90;;;;;;6188125;23;20009;-79
2022/12/09 07:33:55;;;;;;;422.08;37.63;;;-0.30;99.90;;;;;;6138075;23;20013;-81
2022/12/09 07:36:22;;;;;;;446.08;37.28;;;-0.20;99.90;;;;;;6163048;23;20009;-80
2022/12/09 07:38:53;;;;;;;446.38;38.55;;;-0.20;99.90;;;;;;6188671;23;20015;-83
2022/12/09 07:41:18;;;;;;;540.97;40.70;;;-0.20;99.90;;;;;;6188278;23;20017;-80
2022/12/09 07:43:45;;;;;;;469.25;38.60;;;-0.20;99.90;;;;;;6161956;23;20019;-81
2022/12/09 07:46:12;;;;;;;409.40;35.30;;;-0.20;99.90;;;;;;6188355;23;20013;-80
2022/12/09 07:48:38;;;;;;;601.03;45.65;;;-0.10;99.90;;;;;;6187701;23;20071;-80
2022/12/09 07:51:05;;;;;;;350.45;35.17;;;-0.10;99.90;;;;;;6136300;23;20017;-76
2022/12/09 07:53:32;;;;;;;520.00;43.58;;;-0.10;99.90;;;;;;6136091;23;20013;-79
2022/12/09 07:56:13;;;;;;;452.77;41.88;;;-0.10;99.90;;;;;;6187149;23;20442;-81
2022/12/09 07:58:39;;;;;;;548.95;45.22;;;-0.10;99.90;;;;;;6161082;23;20095;-81
2022/12/09 08:01:06;;;;;;;274.00;33.47;;;0.00;99.90;;;;;;6166662;23;20021;-81
2022/12/09 08:03:32;;;;;;;296.17;32.50;;;-0.10;99.90;;;;;;6185769;23;20032;-78
2022/12/09 08:05:58;;;;;;;299.08;35.15;;;0.00;99.90;;;;;;6160493;23;20452;-79
2022/12/09 08:08:24;;;;;;;466.35;42.42;;;0.00;99.90;;;;;;6185739;23;20019;-78
2022/12/09 08:10:49;;;;;;;532.45;42.65;;;0.00;99.90;;;;;;6160662;23;20080;-78
2022/12/09 08:13:15;;;;;;;550.38;40.10;;;0.00;99.90;;;;;;6186080;23;20013;-79
2022/12/09 08:15:44;;;;;;;423.50;38.65;;;0.00;99.90;;;;;;6186019;23;20021;-81
2022/12/09 08:18:10;;;;;;;613.78;42.08;;;0.00;99.90;;;;;;6193275;23;20013;-84
2022/12/09 08:20:36;;;;;;;508.38;39.70;;;0.00;99.90;;;;;;6162417;23;20510;-81
2022/12/09 08:23:01;;;;;;;541.67;41.65;;;0.00;99.90;;;;;;6188426;23;20345;-81
2022/12/09 08:25:27;;;;;;;591.88;43.67;;;0.00;99.90;;;;;;6185893;23;20017;-79
2022/12/09 08:27:53;;;;;;;525.90;41.38;;;0.00;99.90;;;;;;6187431;23;20016;-80
2022/12/09 08:30:19;;;;;;;457.15;40.38;;;0.00;99.90;;;;;;6187632;23;20017;-82
2022/12/09 08:32:44;;;;;;;640.03;47.85;;;0.10;99.90;;;;;;6187198;23;20044;-81
2022/12/09 08:35:13;;;;;;;501.92;39.67;;;0.10;99.90;;;;;;6185799;23;20016;-82
2022/12/09 08:37:43;;;;;;;467.13;40.25;;;0.10;99.90;;;;;;6187206;23;20067;-82
2022/12/09 08:40:10;;;;;;;575.08;43.88;;;0.20;99.90;;;;;;6185429;23;20009;-81
2022/12/09 08:42:37;;;;;;;544.30;44.22;;;0.10;99.90;;;;;;6185774;23;20069;-83
2022/12/09 08:45:04;;;;;;;453.67;39.90;;;0.10;99.90;;;;;;6187553;23;20360;-82
2022/12/09 08:47:29;;;;;;;428.42;37.75;;;0.20;99.90;;;;;;6185668;23;20501;-83
2022/12/09 08:49:55;;;;;;;492.48;42.42;;;0.20;99.90;;;;;;6187951;23;20013;-82
2022/12/09 08:52:21;;;;;;;413.77;36.58;;;0.20;99.90;;;;;;6186176;23;20043;-82
2022/12/09 08:54:46;;;;;;;563.97;47.05;;;0.20;99.90;;;;;;6188790;23;20013;-81
2022/12/09 08:57:12;;;;;;;377.30;37.28;;;0.20;99.90;;;;;;6162858;23;20079;-82
2022/12/09 08:59:38;;;;;;;292.65;36.28;;;0.30;99.90;;;;;;6187500;23;20024;-82
2022/12/09 09:02:03;;;;;;;379.67;41.28;;;0.30;99.90;;;;;;6185385;23;20024;-82
2022/12/09 09:04:30;;;;;;;293.35;35.65;;;0.30;99.90;;;;;;6187007;23;20451;-82
2022/12/09 09:06:56;;;;;;;222.10;34.35;;;0.40;99.90;;;;;;6161138;23;20028;-82
2022/12/09 09:09:22;;;;;;;359.70;37.17;;;0.40;99.90;;;;;;6187528;23;20009;-82
2022/12/09 09:11:48;;;;;;;287.10;34.97;;;0.40;99.90;;;;;;6187510;23;20020;-81
2022/12/09 09:14:14;;;;;;;239.05;34.47;;;0.40;99.90;;;;;;6185368;23;20017;-82
2022/12/09 09:16:41;;;;;;;214.90;33.00;;;0.40;99.90;;;;;;6187749;23;20092;-82
2022/12/09 09:19:11;;;;;;;180.82;30.63;;;0.30;99.90;;;;;;6193613;23;20013;-82
2022/12/09 09:21:37;;;;;;;145.02;29.60;;;0.40;99.90;;;;;;6191119;23;20016;-82
2022/12/09 09:24:10;;;;;;;167.82;29.95;;;0.40;99.90;;;;;;6196496;23;20063;-82
2022/12/09 09:26:39;;;;;;;149.73;29.92;;;0.40;99.90;;;;;;6196836;23;20017;-82
2022/12/09 09:29:04;;;;;;;212.25;32.90;;;0.40;99.90;;;;;;6188746;23;20336;-81
2022/12/09 09:31:30;;;;;;;173.05;32.53;;;0.40;99.90;;;;;;6188055;23;20013;-81
2022/12/09 09:33:56;;;;;;;129.77;28.83;;;0.40;99.90;;;;;;6188285;23;20017;-82
2022/12/09 09:36:23;;;;;;;133.40;30.30;;;0.50;99.90;;;;;;6185950;23;20116;-81
2022/12/09 09:38:52;;;;;;;137.93;31.63;;;0.50;99.90;;;;;;6187764;23;20051;-82
2022/12/09 09:41:36;;;;;;;168.18;34.20;;;0.60;99.90;;;;;;6187224;23;20043;-82
2022/12/09 09:44:03;;;;;;;155.48;33.90;;;0.60;99.90;;;;;;6185221;23;20049;-83
2022/12/09 09:46:41;;;;;;;143.90;33.90;;;0.70;99.90;;;;;;6186589;23;20020;-81
2022/12/09 09:49:13;;;;;;;134.02;30.88;;;0.70;99.90;;;;;;6187643;23;20005;-82
2022/12/09 09:51:39;;;;;;;169.07;33.05;;;0.80;99.90;;;;;;6185507;23;20099;-82
2022/12/09 09:54:07;;;;;;;117.78;29.63;;;0.80;99.90;;;;;;6160178;23;20013;-81
2022/12/09 09:56:53;;;;;;;139.55;29.60;;;0.90;99.90;;;;;;6186901;23;20016;-83
2022/12/09 09:59:35;;;;;;;109.05;31.08;;;0.90;99.90;;;;;;6187289;23;20013;-82
2022/12/09 10:02:10;;;;;;;112.57;30.63;;;0.90;99.90;;;;;;6184411;23;20328;-82
2022/12/09 10:05:06;;;;;;;127.00;29.73;;;0.90;99.90;;;;;;6185085;23;20025;-84
2022/12/09 10:07:43;;;;;;;105.90;29.77;;;0.90;99.90;;;;;;6184707;23;20016;-82
2022/12/09 10:10:25;;;;;;;118.32;28.83;;;0.90;99.90;;;;;;6186427;23;20040;-82
2022/12/09 10:13:02;;;;;;;141.15;30.13;;;0.90;99.90;;;;;;6186489;23;20301;-82
2022/12/09 10:15:32;;;;;;;116.25;28.77;;;1.00;99.90;;;;;;6184929;23;20017;-83
2022/12/09 10:18:30;;;;;;;139.82;31.15;;;1.00;99.90;;;;;;6186750;23;20013;-83
2022/12/09 10:20:56;;;;;;;135.82;31.38;;;1.00;99.90;;;;;;6186575;23;20044;-83
2022/12/09 10:23:22;;;;;;;124.57;29.60;;;1.00;99.90;;;;;;6184937;23;20040;-83
2022/12/09 10:26:01;;;;;;;112.60;28.13;;;1.10;99.90;;;;;;6187434;23;20013;-83
2022/12/09 10:28:35;;;;;;;137.32;30.00;;;1.10;99.90;;;;;;6187515;23;20013;-82
2022/12/09 10:31:02;;;;;;;114.10;29.98;;;1.10;99.90;;;;;;6188976;23;20016;-83
2022/12/09 10:33:38;;;;;;;140.90;29.67;;;1.10;99.90;;;;;;6189580;23;20009;-83
2022/12/09 10:36:06;;;;;;;168.15;30.52;;;1.10;99.90;;;;;;6189771;23;20024;-82
2022/12/09 10:38:36;;;;;;;161.20;29.90;;;1.10;99.90;;;;;;6188722;23;20024;-83
2022/12/09 10:44:25;;;;;;;131.63;31.10;;;1.30;99.90;;;;;;6182828;23;20028;-81
2022/12/09 10:47:02;;;;;;;128.48;28.10;;;1.30;99.90;;;;;;6189633;23;20014;-82
2022/12/09 10:49:29;;;;;;;133.43;29.33;;;1.40;99.90;;;;;;6190279;23;20010;-82
2022/12/09 10:51:55;;;;;;;147.63;31.10;;;1.30;99.90;;;;;;6189074;23;20009;-84
2022/12/09 10:54:29;;;;;;;132.93;28.48;;;1.30;99.90;;;;;;6187509;23;20458;-83
2022/12/09 10:57:10;;;;;;;117.63;28.55;;;1.40;99.90;;;;;;6189402;23;20040;-82
2022/12/09 10:59:38;;;;;;;92.97;28.00;;;1.40;99.90;;;;;;6188080;23;20017;-82
2022/12/09 11:02:06;;;;;;;94.43;26.85;;;1.40;99.90;;;;;;6189185;23;20024;-83
2022/12/09 11:04:40;;;;;;;78.60;26.77;;;1.50;99.90;;;;;;6164345;23;20308;-82
2022/12/09 11:07:06;;;;;;;87.93;27.40;;;1.40;99.90;;;;;;6189875;23;20028;-83
2022/12/09 11:09:34;;;;;;;135.90;31.27;;;1.50;99.90;;;;;;6189181;23;20013;-83
2022/12/09 11:12:02;;;;;;;137.68;32.28;;;1.50;99.90;;;;;;6163068;23;20016;-82
2022/12/09 11:14:48;;;;;;;133.48;31.25;;;1.50;99.90;;;;;;6189746;23;20016;-83
2022/12/09 11:17:20;;;;;;;106.43;26.70;;;1.40;99.90;;;;;;6162487;23;20053;-82
2022/12/09 11:19:50;;;;;;;86.78;26.52;;;1.50;99.90;;;;;;6189331;23;20471;-83
2022/12/09 11:22:39;;;;;;;87.25;27.05;;;1.50;99.90;;;;;;6189570;23;20051;-82
2022/12/09 11:25:22;;;;;;;104.20;28.13;;;1.50;99.90;;;;;;6189944;23;20013;-83
2022/12/09 11:28:00;;;;;;;114.50;28.80;;;1.50;99.90;;;;;;6190747;23;20009;-82
2022/12/09 11:30:37;;;;;;;114.88;28.80;;;1.50;99.90;;;;;;6163756;23;20434;-83
2022/12/09 11:33:06;;;;;;;85.90;27.25;;;1.50;99.90;;;;;;6190780;23;20009;-83
2022/12/09 11:35:43;;;;;;;81.63;26.27;;;1.50;99.90;;;;;;6163148;23;20016;-82
2022/12/09 11:38:15;;;;;;;87.68;30.25;;;1.60;99.90;;;;;;6190602;23;20369;-82
2022/12/09 11:40:40;;;;;;;78.07;24.98;;;1.60;99.90;;;;;;6140723;23;20019;-81
2022/12/09 11:43:06;;;;;;;73.60;25.25;;;1.60;99.90;;;;;;6189108;23;20088;-83
2022/12/09 11:45:44;;;;;;;80.57;26.55;;;1.60;99.90;;;;;;6188721;23;20494;-83
2022/12/09 11:48:31;;;;;;;69.55;25.80;;;1.60;99.90;;;;;;6189396;23;20009;-82
2022/12/09 11:50:57;;;;;;;70.53;24.60;;;1.60;99.90;;;;;;6163506;23;20009;-82
2022/12/09 11:53:29;;;;;;;71.22;24.80;;;1.60;99.90;;;;;;6189202;23;20044;-82
2022/12/09 11:56:19;;;;;;;71.20;25.15;;;1.60;99.90;;;;;;6189284;23;20019;-83
2022/12/09 11:58:55;;;;;;;75.13;27.25;;;1.70;99.90;;;;;;6189229;23;20013;-82
2022/12/09 12:01:46;;;;;;;73.07;24.33;;;1.60;99.90;;;;;;6188804;23;20017;-83
2022/12/09 12:04:16;;;;;;;62.28;23.33;;;1.70;99.90;;;;;;6162606;23;20093;-82
2022/12/09 12:06:55;;;;;;;67.90;25.35;;;1.70;99.90;;;;;;6189082;23;20020;-82
2022/12/09 12:09:36;;;;;;;70.03;25.70;;;1.80;99.90;;;;;;6188735;23;20360;-83
2022/12/09 12:12:24;;;;;;;74.15;25.10;;;1.80;99.90;;;;;;6162236;23;20044;-82
2022/12/09 12:14:50;;;;;;;69.05;25.52;;;1.80;99.90;;;;;;6188833;23;20017;-83
2022/12/09 12:17:27;;;;;;;65.55;24.55;;;1.90;99.90;;;;;;6188533;23;20095;-83
2022/12/09 12:19:55;;;;;;;68.28;24.05;;;1.90;99.90;;;;;;6189103;23;20013;-83
2022/12/09 12:22:55;;;;;;;69.45;26.10;;;1.90;99.90;;;;;;6162072;23;20067;-83
2022/12/09 12:25:44;;;;;;;67.53;25.35;;;1.90;99.90;;;;;;6188217;23;20017;-83
2022/12/09 12:28:13;;;;;;;74.88;27.20;;;1.90;99.90;;;;;;6137398;23;20009;-83
2022/12/09 12:30:57;;;;;;;69.95;25.77;;;2.00;99.90;;;;;;6162167;23;20361;-82
2022/12/09 12:33:47;;;;;;;65.45;25.30;;;2.00;99.90;;;;;;6162335;23;20009;-82
2022/12/09 12:36:31;;;;;;;67.88;24.58;;;2.00;99.90;;;;;;6161894;23;20017;-82
2022/12/09 12:39:12;;;;;;;64.47;24.92;;;2.00;99.90;;;;;;6188344;23;20350;-81
2022/12/09 12:42:03;;;;;;;62.90;24.02;;;2.00;99.90;;;;;;6188988;23;20052;-82
2022/12/09 12:48:06;;;;;;;64.07;24.45;;;2.10;99.90;;;;;;6161029;23;20455;-82
2022/12/09 12:51:16;;;;;;;66.78;25.27;;;2.10;99.90;;;;;;6137515;23;20016;-82
2022/12/09 12:54:17;;;;;;;61.67;24.20;;;2.00;99.90;;;;;;6131864;23;20342;-82
2022/12/09 12:57:00;;;;;;;61.22;23.42;;;2.00;99.90;;;;;;6125043;23;20012;-82
2022/12/09 12:59:56;;;;;;;66.93;24.83;;;2.00;99.90;;;;;;6161811;23;20024;-81
2022/12/09 13:02:38;;;;;;;60.17;23.02;;;2.00;99.90;;;;;;6188187;23;20024;-81
2022/12/09 13:05:21;;;;;;;64.30;24.58;;;2.00;99.90;;;;;;6162152;23;20017;-82
2022/12/09 13:08:24;;;;;;;63.30;25.02;;;2.00;99.90;;;;;;6138015;23;20416;-82
2022/12/09 13:10:53;;;;;;;58.45;22.98;;;2.10;99.90;;;;;;6187995;23;20048;-82
2022/12/09 13:13:34;;;;;;;54.17;22.10;;;2.10;99.90;;;;;;6161596;23;20366;-82
2022/12/09 13:16:07;;;;;;;53.08;21.30;;;2.10;99.90;;;;;;6188468;23;20020;-81
2022/12/09 13:18:37;;;;;;;57.45;23.35;;;2.10;99.90;;;;;;6161667;23;20021;-82
2022/12/09 13:21:05;;;;;;;57.20;22.63;;;2.20;99.90;;;;;;6187929;23;20036;-79
2022/12/09 13:24:01;;;;;;;56.00;23.33;;;2.20;99.90;;;;;;6187310;23;20334;-82
2022/12/09 13:26:42;;;;;;;52.43;21.90;;;2.20;99.90;;;;;;6161443;23;20084;-82
2022/12/09 13:29:30;;;;;;;58.55;23.23;;;2.20;99.90;;;;;;6161996;23;20013;-82
2022/12/09 13:32:33;;;;;;;57.65;22.35;;;2.20;99.90;;;;;;6188287;23;20023;-82
2022/12/09 13:35:18;;;;;;;53.58;22.88;;;2.40;99.90;;;;;;6187718;23;20013;-82
2022/12/09 13:37:43;;;;;;;55.78;23.27;;;2.60;99.90;;;;;;6162225;23;20076;-81
2022/12/09 13:40:35;;;;;;;58.03;22.60;;;2.60;99.90;;;;;;6161859;23;20102;-83
2022/12/09 13:43:01;;;;;;;50.90;21.70;;;2.60;99.90;;;;;;6188242;23;20013;-83
2022/12/09 13:45:30;;;;;;;57.38;22.95;;;2.70;99.90;;;;;;6187779;23;20028;-81
2022/12/09 13:48:03;;;;;;;52.63;22.30;;;2.90;99.90;;;;;;6161023;23;20091;-82
2022/12/09 13:50:33;;;;;;;55.03;22.65;;;3.00;99.90;;;;;;6161402;23;20367;-83
2022/12/09 13:53:03;;;;;;;54.10;23.85;;;3.00;99.90;;;;;;6161262;23;20111;-82
2022/12/09 13:55:37;;;;;;;53.75;22.45;;;2.90;99.90;;;;;;6161289;23;20451;-83
2022/12/09 13:58:18;;;;;;;53.22;23.65;;;2.90;99.90;;;;;;6162271;23;20052;-82
2022/12/09 14:01:00;;;;;;;50.20;22.80;;;2.90;99.90;;;;;;6173999;23;20012;-77
2022/12/09 14:03:52;;;;;;;54.63;23.52;;;2.80;99.90;;;;;;6199995;23;20021;-81
2022/12/09 14:06:32;;;;;;;49.67;21.58;;;2.80;99.90;;;;;;6189197;23;20014;-82
2022/12/09 14:09:02;;;;;;;52.35;22.90;;;2.70;99.90;;;;;;6189789;23;20084;-82
2022/12/09 14:11:37;;;;;;;53.53;22.45;;;2.70;99.90;;;;;;6189486;23;20036;-83
2022/12/09 14:14:21;;;;;;;57.53;23.02;;;2.60;99.90;;;;;;6186994;23;20009;-82
2022/12/09 14:16:47;;;;;;;51.60;21.05;;;2.60;99.90;;;;;;6189140;23;20075;-82
2022/12/09 14:19:30;;;;;;;50.80;22.70;;;2.60;99.90;;;;;;6187095;23;20009;-81
2022/12/09 14:22:18;;;;;;;56.45;23.45;;;2.60;99.90;;;;;;6187078;23;20017;-82
2022/12/09 14:24:51;;;;;;;57.67;23.63;;;2.50;99.90;;;;;;6187015;23;20427;-81
2022/12/09 14:27:20;;;;;;;50.67;21.95;;;2.50;99.90;;;;;;6186601;23;20013;-81
2022/12/09 14:29:45;;;;;;;54.33;24.38;;;2.40;99.90;;;;;;6187191;23;20013;-79
2022/12/09 14:32:36;;;;;;;57.80;24.83;;;2.40;99.90;;;;;;6186199;23;20084;-82
2022/12/09 14:35:11;;;;;;;50.40;22.02;;;2.30;99.90;;;;;;6185575;23;20016;-81
2022/12/09 14:37:52;;;;;;;56.17;22.33;;;2.30;99.90;;;;;;6187287;23;20470;-82
2022/12/09 14:40:21;;;;;;;49.47;21.80;;;2.20;99.90;;;;;;6186231;23;20084;-82
2022/12/09 14:43:01;;;;;;;51.40;21.38;;;2.20;99.90;;;;;;6186219;23;20019;-82
2022/12/09 14:45:35;;;;;;;50.35;22.10;;;2.10;99.90;;;;;;6188500;23;20009;-82
2022/12/09 14:48:09;;;;;;;53.40;23.13;;;2.10;99.90;;;;;;6188681;23;20005;-81
2022/12/09 14:50:37;;;;;;;56.45;23.70;;;2.10;99.90;;;;;;6186361;23;20072;-82
2022/12/09 14:53:09;;;;;;;56.55;23.48;;;2.00;99.90;;;;;;6187189;23;20013;-81
2022/12/09 14:55:39;;;;;;;57.40;23.38;;;2.00;99.90;;;;;;6186961;23;20020;-83
2022/12/09 14:58:04;;;;;;;52.20;22.30;;;2.00;99.90;;;;;;6189035;23;20075;-81
2022/12/09 15:00:36;;;;;;;60.67;24.88;;;1.90;99.90;;;;;;6187447;23;20360;-83
2022/12/09 15:03:04;;;;;;;53.33;23.17;;;1.90;99.90;;;;;;6161779;23;20076;-82
2022/12/09 15:05:30;;;;;;;57.30;22.70;;;1.90;99.90;;;;;;6187424;23;20089;-83
2022/12/09 15:07:59;;;;;;;57.30;23.13;;;1.90;99.90;;;;;;6161049;23;20048;-81
2022/12/09 15:10:36;;;;;;;61.78;26.00;;;1.90;99.90;;;;;;6159298;23;20324;-80
2022/12/09 15:13:04;;;;;;;66.30;27.25;;;1.90;99.90;;;;;;6187839;23;20092;-80
2022/12/09 15:15:36;;;;;;;70.25;29.23;;;1.80;99.90;;;;;;6162430;23;20421;-82
2022/12/09 15:18:16;;;;;;;71.40;27.92;;;1.70;99.90;;;;;;6162216;23;20041;-80
2022/12/09 15:20:46;;;;;;;68.72;28.10;;;1.70;99.90;;;;;;6162521;23;20344;-80
2022/12/09 15:23:16;;;;;;;70.88;27.40;;;1.60;99.90;;;;;;6162337;23;20024;-81
2022/12/09 15:25:47;;;;;;;70.13;27.33;;;1.50;99.90;;;;;;6188281;23;20013;-80
2022/12/09 15:28:15;;;;;;;79.95;30.45;;;1.50;99.90;;;;;;6161965;23;20031;-81
2022/12/09 15:30:42;;;;;;;68.30;27.35;;;1.40;99.90;;;;;;6137325;23;20439;-81
2022/12/09 15:33:21;;;;;;;72.03;29.33;;;1.40;99.90;;;;;;6162481;23;20016;-80
2022/12/09 15:36:01;;;;;;;72.07;26.50;;;1.30;99.90;;;;;;6189493;23;20367;-81
2022/12/09 15:38:31;;;;;;;74.30;27.92;;;1.30;99.90;;;;;;6188310;23;20017;-81
2022/12/09 15:43:46;;;;;;;73.18;27.55;;;1.10;99.90;;;;;;6188291;23;20463;-80
2022/12/09 15:46:12;;;;;;;80.78;28.08;;;1.00;99.90;;;;;;6187850;23;20112;-79
2022/12/09 15:48:43;;;;;;;79.68;30.55;;;0.90;99.90;;;;;;6162409;23;20013;-80
2022/12/09 15:51:14;;;;;;;77.75;29.35;;;0.80;99.90;;;;;;6162495;23;20020;-82
2022/12/09 15:53:52;;;;;;;95.45;35.53;;;0.80;99.90;;;;;;6161674;23;20012;-81
2022/12/09 15:56:40;;;;;;;92.78;32.47;;;0.70;99.90;;;;;;6137138;23;20013;-81
2022/12/09 15:59:19;;;;;;;86.88;32.28;;;0.70;99.90;;;;;;6161976;23;20028;-81
2022/12/09 16:01:51;;;;;;;82.35;31.52;;;0.60;99.90;;;;;;6188174;23;20017;-81
2022/12/09 16:04:20;;;;;;;90.55;29.90;;;0.60;99.90;;;;;;6188044;23;20017;-81
2022/12/09 16:06:46;;;;;;;90.55;32.08;;;0.60;99.90;;;;;;6161704;23;20092;-80
2022/12/09 16:09:15;;;;;;;96.78;36.22;;;0.60;99.90;;;;;;6161014;23;20039;-81
2022/12/09 16:11:44;;;;;;;101.80;38.33;;;0.50;99.90;;;;;;6161607;23;20016;-82
2022/12/09 16:14:11;;;;;;;107.43;40.78;;;0.50;99.90;;;;;;6188316;23;20084;-81
2022/12/09 16:16:57;;;;;;;114.68;41.95;;;0.50;99.90;;;;;;6160477;23;20087;-81
2022/12/09 16:19:34;;;;;;;115.40;40.70;;;0.50;99.90;;;;;;6187145;23;20339;-82
2022/12/09 16:22:15;;;;;;;115.53;39.28;;;0.50;99.90;;;;;;6160800;23;20017;-80
2022/12/09 16:24:58;;;;;;;103.32;38.20;;;0.50;99.90;;;;;;6160174;23;20020;-79
2022/12/09 16:27:27;;;;;;;114.97;40.63;;;0.40;99.90;;;;;;6186976;23;20056;-81
2022/12/09 16:29:56;;;;;;;119.68;40.53;;;0.40;99.90;;;;;;6160537;23;20088;-78
2022/12/09 16:32:33;;;;;;;112.45;40.83;;;0.40;99.90;;;;;;6135480;23;20016;-81
2022/12/09 16:35:10;;;;;;;117.53;41.15;;;0.30;99.90;;;;;;6160347;23;20546;-80
2022/12/09 16:37:38;;;;;;;103.88;38.55;;;0.30;99.90;;;;;;6160724;23;20021;-79
2022/12/09 16:40:22;;;;;;;108.72;38.90;;;0.30;99.90;;;;;;6160031;23;20051;-81
2022/12/09 16:43:11;;;;;;;104.18;38.58;;;0.30;99.90;;;;;;6160377;23;20083;-80
2022/12/09 16:45:39;;;;;;;125.85;42.50;;;0.30;99.90;;;;;;6160196;23;20020;-81
2022/12/09 16:48:06;;;;;;;151.75;51.50;;;0.20;99.90;;;;;;6160228;23;20091;-80
2022/12/09 16:50:40;;;;;;;155.93;51.92;;;0.20;99.90;;;;;;6186888;23;20009;-81
2022/12/09 16:53:13;;;;;;;124.75;46.17;;;0.10;99.90;;;;;;6161130;23;20088;-81
2022/12/09 16:55:39;;;;;;;101.13;36.03;;;0.20;99.90;;;;;;6161940;23;20084;-80
2022/12/09 16:58:04;;;;;;;100.43;34.83;;;0.20;99.90;;;;;;6188522;23;20060;-82
2022/12/09 17:00:30;;;;;;;100.78;35.30;;;0.10;99.90;;;;;;6162177;23;20078;-80
2022/12/09 17:03:04;;;;;;;91.35;32.42;;;0.10;99.90;;;;;;6161195;23;20159;-80